createdAt,value
2018-09-09T00:01:55.000Z,100736
2018-09-09T00:02:55.000Z,100740
2018-09-09T00:04:55.000Z,100738
2018-09-09T00:05:55.000Z,100729
2018-09-09T00:06:55.000Z,100735
2018-09-09T00:08:55.000Z,100733
2018-09-09T00:10:40.000Z,100733
2018-09-09T00:11:55.000Z,100732
2018-09-09T00:13:55.000Z,100730
2018-09-09T00:14:55.000Z,100734
2018-09-09T00:16:55.000Z,100734
2018-09-09T00:18:25.000Z,100736
2018-09-09T00:19:55.000Z,100726
2018-09-09T00:20:55.000Z,100729
2018-09-09T00:22:40.000Z,100727
2018-09-09T00:23:55.000Z,100729
2018-09-09T00:25:55.000Z,100715
2018-09-09T00:27:24.000Z,100716
2018-09-09T00:28:55.000Z,100721
2018-09-09T00:30:55.000Z,100726
2018-09-09T00:32:55.000Z,100727
2018-09-09T00:34:40.000Z,100728
2018-09-09T00:35:55.000Z,100723
2018-09-09T00:36:55.000Z,100724
2018-09-09T00:38:55.000Z,100721
2018-09-09T00:39:55.000Z,100724
2018-09-09T00:41:55.000Z,100715
2018-09-09T00:43:55.000Z,100720
2018-09-09T00:44:55.000Z,100720
2018-09-09T00:45:55.000Z,100726
2018-09-09T00:47:55.000Z,100717
2018-09-09T00:48:55.000Z,100717
2018-09-09T00:49:55.000Z,100719
2018-09-09T00:50:55.000Z,100714
2018-09-09T00:52:55.000Z,100715
2018-09-09T00:54:55.000Z,100718
2018-09-09T00:55:55.000Z,100721
2018-09-09T00:57:55.000Z,100711
2018-09-09T00:58:55.000Z,100709
2018-09-09T01:00:55.000Z,100716
2018-09-09T01:01:55.000Z,100723
2018-09-09T01:03:55.000Z,100720
2018-09-09T01:05:55.000Z,100721
2018-09-09T01:07:55.000Z,100722
2018-09-09T01:09:55.000Z,100724
2018-09-09T01:11:55.000Z,100723
2018-09-09T01:12:55.000Z,100725
2018-09-09T01:13:55.000Z,100728
2018-09-09T01:15:55.000Z,100725
2018-09-09T01:17:55.000Z,100719
2018-09-09T01:18:55.000Z,100721
2018-09-09T01:20:55.000Z,100721
2018-09-09T01:21:55.000Z,100725
2018-09-09T01:23:55.000Z,100728
2018-09-09T01:25:55.000Z,100716
2018-09-09T01:27:55.000Z,100714
2018-09-09T01:28:55.000Z,100710
2018-09-09T01:30:55.000Z,100717
2018-09-09T01:31:55.000Z,100717
2018-09-09T01:33:55.000Z,100712
2018-09-09T01:35:55.000Z,100710
2018-09-09T01:37:55.000Z,100712
2018-09-09T01:39:55.000Z,100709
2018-09-09T01:40:55.000Z,100712
2018-09-09T01:42:55.000Z,100706
2018-09-09T01:43:55.000Z,100701
2018-09-09T01:45:55.000Z,100707
2018-09-09T01:47:55.000Z,100712
2018-09-09T01:49:55.000Z,100718
2018-09-09T01:51:55.000Z,100708
2018-09-09T01:52:55.000Z,100708
2018-09-09T01:54:40.000Z,100701
2018-09-09T01:55:55.000Z,100703
2018-09-09T01:57:40.000Z,100706
2018-09-09T01:58:55.000Z,100711
2018-09-09T01:59:55.000Z,100709
2018-09-09T02:00:55.000Z,100707
2018-09-09T02:01:55.000Z,100709
2018-09-09T02:03:55.000Z,100717
2018-09-09T02:05:55.000Z,100717
2018-09-09T02:06:55.000Z,100719
2018-09-09T02:07:55.000Z,100722
2018-09-09T02:09:55.000Z,100722
2018-09-09T02:11:55.000Z,100721
2018-09-09T02:13:40.000Z,100722
2018-09-09T02:14:55.000Z,100724
2018-09-09T02:15:55.000Z,100726
2018-09-09T02:17:55.000Z,100722
2018-09-09T02:19:55.000Z,100724
2018-09-09T02:20:55.000Z,100723
2018-09-09T02:21:55.000Z,100717
2018-09-09T02:23:55.000Z,100712
2018-09-09T02:24:55.000Z,100716
2018-09-09T02:26:40.000Z,100719
2018-09-09T02:27:55.000Z,100724
2018-09-09T02:29:55.000Z,100715
2018-09-09T02:31:55.000Z,100725
2018-09-09T02:32:55.000Z,100723
2018-09-09T02:34:40.000Z,100723
2018-09-09T02:35:55.000Z,100721
2018-09-09T02:37:55.000Z,100720
2018-09-09T02:39:40.000Z,100718
2018-09-09T02:40:55.000Z,100725
2018-09-09T02:42:55.000Z,100713
2018-09-09T02:44:55.000Z,100711
2018-09-09T02:45:55.000Z,100716
2018-09-09T02:46:55.000Z,100708
2018-09-09T02:48:55.000Z,100716
2018-09-09T02:49:55.000Z,100712
2018-09-09T02:51:40.000Z,100721
2018-09-09T02:52:55.000Z,100720
2018-09-09T02:53:55.000Z,100718
2018-09-09T02:55:40.000Z,100715
2018-09-09T02:56:55.000Z,100716
2018-09-09T02:57:55.000Z,100713
2018-09-09T02:59:55.000Z,100716
2018-09-09T03:01:55.000Z,100724
2018-09-09T03:03:55.000Z,100730
2018-09-09T03:05:40.000Z,100733
2018-09-09T03:06:55.000Z,100740
2018-09-09T03:07:55.000Z,100739
2018-09-09T03:09:55.000Z,100733
2018-09-09T03:11:55.000Z,100728
2018-09-09T03:13:55.000Z,100727
2018-09-09T03:15:55.000Z,100728
2018-09-09T03:17:55.000Z,100725
2018-09-09T03:18:55.000Z,100718
2018-09-09T03:20:55.000Z,100715
2018-09-09T03:22:55.000Z,100717
2018-09-09T03:24:55.000Z,100719
2018-09-09T03:25:55.000Z,100715
2018-09-09T03:27:55.000Z,100707
2018-09-09T03:28:55.000Z,100701
2018-09-09T03:30:40.000Z,100701
2018-09-09T03:31:55.000Z,100696
2018-09-09T03:32:55.000Z,100694
2018-09-09T03:34:55.000Z,100690
2018-09-09T03:36:55.000Z,100697
2018-09-09T03:37:55.000Z,100698
2018-09-09T03:39:55.000Z,100695
2018-09-09T03:41:55.000Z,100710
2018-09-09T03:43:55.000Z,100712
2018-09-09T03:45:55.000Z,100707
2018-09-09T03:46:55.000Z,100709
2018-09-09T03:48:55.000Z,100701
2018-09-09T03:50:55.000Z,100691
2018-09-09T03:52:55.000Z,100689
2018-09-09T03:54:55.000Z,100688
2018-09-09T03:55:55.000Z,100693
2018-09-09T03:57:40.000Z,100686
2018-09-09T03:58:55.000Z,100688
2018-09-09T04:00:55.000Z,100694
2018-09-09T04:02:55.000Z,100701
2018-09-09T04:04:40.000Z,100705
2018-09-09T04:05:55.000Z,100707
2018-09-09T04:06:55.000Z,100715
2018-09-09T04:08:55.000Z,100722
2018-09-09T04:10:55.000Z,100722
2018-09-09T04:12:40.000Z,100732
2018-09-09T04:13:55.000Z,100718
2018-09-09T04:14:55.000Z,100727
2018-09-09T04:16:25.000Z,100727
2018-09-09T04:17:55.000Z,100722
2018-09-09T04:19:55.000Z,100723
2018-09-09T04:21:55.000Z,100718
2018-09-09T04:23:55.000Z,100728
2018-09-09T04:25:55.000Z,100733
2018-09-09T04:26:55.000Z,100731
2018-09-09T04:28:55.000Z,100724
2018-09-09T04:29:55.000Z,100728
2018-09-09T04:30:55.000Z,100722
2018-09-09T04:32:55.000Z,100717
2018-09-09T04:33:55.000Z,100716
2018-09-09T04:35:40.000Z,100722
2018-09-09T04:36:55.000Z,100725
2018-09-09T04:38:55.000Z,100718
2018-09-09T04:39:55.000Z,100715
2018-09-09T04:41:39.000Z,100713
2018-09-09T04:43:55.000Z,100719
2018-09-09T04:44:55.000Z,100718
2018-09-09T04:46:55.000Z,100718
2018-09-09T04:48:39.000Z,100726
2018-09-09T04:49:55.000Z,100718
2018-09-09T04:50:55.000Z,100726
2018-09-09T04:51:55.000Z,100729
2018-09-09T04:53:55.000Z,100724
2018-09-09T04:55:55.000Z,100728
2018-09-09T04:57:55.000Z,100731
2018-09-09T04:58:55.000Z,100728
2018-09-09T05:00:55.000Z,100728
2018-09-09T05:02:55.000Z,100723
2018-09-09T05:03:55.000Z,100727
2018-09-09T05:05:55.000Z,100730
2018-09-09T05:07:55.000Z,100727
2018-09-09T05:09:55.000Z,100736
2018-09-09T05:11:55.000Z,100732
2018-09-09T05:12:55.000Z,100739
2018-09-09T05:14:55.000Z,100740
2018-09-09T05:15:55.000Z,100742
2018-09-09T05:16:55.000Z,100741
2018-09-09T05:18:55.000Z,100749
2018-09-09T05:20:55.000Z,100743
2018-09-09T05:21:55.000Z,100741
2018-09-09T05:23:55.000Z,100738
2018-09-09T05:25:55.000Z,100751
2018-09-09T05:26:55.000Z,100750
2018-09-09T05:28:55.000Z,100755
2018-09-09T05:29:55.000Z,100755
2018-09-09T05:31:55.000Z,100755
2018-09-09T05:32:55.000Z,100757
2018-09-09T05:34:55.000Z,100747
2018-09-09T05:35:55.000Z,100750
2018-09-09T05:37:39.000Z,100750
2018-09-09T05:38:55.000Z,100749
2018-09-09T05:40:24.000Z,100759
2018-09-09T05:41:55.000Z,100749
2018-09-09T05:43:55.000Z,100754
2018-09-09T05:45:55.000Z,100754
2018-09-09T05:47:55.000Z,100747
2018-09-09T05:49:55.000Z,100750
2018-09-09T05:51:55.000Z,100751
2018-09-09T05:53:25.000Z,100746
2018-09-09T05:54:55.000Z,100744
2018-09-09T05:55:55.000Z,100744
2018-09-09T05:57:55.000Z,100746
2018-09-09T05:58:55.000Z,100753
2018-09-09T06:00:55.000Z,100759
2018-09-09T06:01:55.000Z,100762
2018-09-09T06:02:55.000Z,100761
2018-09-09T06:04:55.000Z,100762
2018-09-09T06:06:55.000Z,100766
2018-09-09T06:07:55.000Z,100765
2018-09-09T06:09:55.000Z,100768
2018-09-09T06:11:55.000Z,100778
2018-09-09T06:13:25.000Z,100780
2018-09-09T06:14:55.000Z,100783
2018-09-09T06:15:55.000Z,100781
2018-09-09T06:17:55.000Z,100780
2018-09-09T06:18:55.000Z,100781
2018-09-09T06:20:55.000Z,100793
2018-09-09T06:22:55.000Z,100791
2018-09-09T06:24:55.000Z,100795
2018-09-09T06:25:55.000Z,100785
2018-09-09T06:27:55.000Z,100796
2018-09-09T06:29:55.000Z,100796
2018-09-09T06:31:55.000Z,100793
2018-09-09T06:33:55.000Z,100801
2018-09-09T06:34:55.000Z,100799
2018-09-09T06:36:40.000Z,100795
2018-09-09T06:37:55.000Z,100795
2018-09-09T06:39:55.000Z,100798
2018-09-09T06:40:55.000Z,100797
2018-09-09T06:42:55.000Z,100798
2018-09-09T06:44:55.000Z,100802
2018-09-09T06:46:55.000Z,100803
2018-09-09T06:47:55.000Z,100800
2018-09-09T06:49:55.000Z,100800
2018-09-09T06:51:40.000Z,100798
2018-09-09T06:52:55.000Z,100800
2018-09-09T06:54:40.000Z,100804
2018-09-09T06:55:55.000Z,100803
2018-09-09T06:57:40.000Z,100804
2018-09-09T06:58:55.000Z,100803
2018-09-09T06:59:55.000Z,100806
2018-09-09T07:01:40.000Z,100805
2018-09-09T07:02:55.000Z,100809
2018-09-09T07:04:55.000Z,100813
2018-09-09T07:06:55.000Z,100805
2018-09-09T07:07:55.000Z,100801
2018-09-09T07:08:55.000Z,100799
2018-09-09T07:10:24.000Z,100799
2018-09-09T07:11:55.000Z,100795
2018-09-09T07:13:55.000Z,100803
2018-09-09T07:15:55.000Z,100808
2018-09-09T07:17:55.000Z,100795
2018-09-09T07:19:55.000Z,100804
2018-09-09T07:21:55.000Z,100803
2018-09-09T07:23:55.000Z,100809
2018-09-09T07:24:55.000Z,100803
2018-09-09T07:25:55.000Z,100805
2018-09-09T07:27:55.000Z,100808
2018-09-09T07:29:55.000Z,100806
2018-09-09T07:31:55.000Z,100808
2018-09-09T07:33:55.000Z,100805
2018-09-09T07:34:55.000Z,100806
2018-09-09T07:36:55.000Z,100802
2018-09-09T07:38:55.000Z,100806
2018-09-09T07:40:40.000Z,100808
2018-09-09T07:41:55.000Z,100810
2018-09-09T07:43:55.000Z,100813
2018-09-09T07:45:55.000Z,100814
2018-09-09T07:47:55.000Z,100819
2018-09-09T07:49:40.000Z,100819
2018-09-09T07:50:55.000Z,100818
2018-09-09T07:52:40.000Z,100823
2018-09-09T07:53:55.000Z,100824
2018-09-09T07:54:55.000Z,100825
2018-09-09T07:56:55.000Z,100827
2018-09-09T07:58:55.000Z,100823
2018-09-09T07:59:55.000Z,100825
2018-09-09T08:01:55.000Z,100830
2018-09-09T08:03:55.000Z,100827
2018-09-09T08:04:55.000Z,100820
2018-09-09T08:06:55.000Z,100832
2018-09-09T08:08:55.000Z,100833
2018-09-09T08:09:55.000Z,100829
2018-09-09T08:10:55.000Z,100828
2018-09-09T08:12:55.000Z,100829
2018-09-09T08:13:55.000Z,100831
2018-09-09T08:15:55.000Z,100827
2018-09-09T08:16:55.000Z,100830
2018-09-09T08:17:55.000Z,100835
2018-09-09T08:19:55.000Z,100831
2018-09-09T08:20:55.000Z,100829
2018-09-09T08:21:55.000Z,100824
2018-09-09T08:22:55.000Z,100833
2018-09-09T08:24:55.000Z,100831
2018-09-09T08:26:55.000Z,100827
2018-09-09T08:27:55.000Z,100829
2018-09-09T08:29:55.000Z,100825
2018-09-09T08:30:55.000Z,100827
2018-09-09T08:31:55.000Z,100827
2018-09-09T08:33:55.000Z,100828
2018-09-09T08:35:55.000Z,100835
2018-09-09T08:36:55.000Z,100833
2018-09-09T08:38:55.000Z,100832
2018-09-09T08:40:55.000Z,100832
2018-09-09T08:41:55.000Z,100837
2018-09-09T08:43:55.000Z,100836
2018-09-09T08:45:55.000Z,100838
2018-09-09T08:47:55.000Z,100840
2018-09-09T08:49:24.000Z,100838
2018-09-09T08:50:55.000Z,100839
2018-09-09T08:52:55.000Z,100845
2018-09-09T08:54:55.000Z,100847
2018-09-09T08:56:40.000Z,100844
2018-09-09T08:57:55.000Z,100845
2018-09-09T08:59:55.000Z,100839
2018-09-09T09:01:55.000Z,100840
2018-09-09T09:03:55.000Z,100843
2018-09-09T09:05:55.000Z,100842
2018-09-09T09:07:55.000Z,100846
2018-09-09T09:09:55.000Z,100844
2018-09-09T09:10:55.000Z,100847
2018-09-09T09:11:55.000Z,100845
2018-09-09T09:12:55.000Z,100847
2018-09-09T09:14:55.000Z,100847
2018-09-09T09:15:55.000Z,100847
2018-09-09T09:16:55.000Z,100849
2018-09-09T09:18:55.000Z,100847
2018-09-09T09:19:55.000Z,100846
2018-09-09T09:21:55.000Z,100845
2018-09-09T09:22:55.000Z,100848
2018-09-09T09:24:55.000Z,100847
2018-09-09T09:25:55.000Z,100845
2018-09-09T09:26:55.000Z,100839
2018-09-09T09:28:40.000Z,100841
2018-09-09T09:29:55.000Z,100845
2018-09-09T09:31:40.000Z,100838
2018-09-09T09:32:55.000Z,100854
2018-09-09T09:34:55.000Z,100843
2018-09-09T09:36:55.000Z,100846
2018-09-09T09:37:55.000Z,100845
2018-09-09T09:38:55.000Z,100842
2018-09-09T09:40:55.000Z,100834
2018-09-09T09:42:55.000Z,100830
2018-09-09T09:43:55.000Z,100833
2018-09-09T09:45:55.000Z,100838
2018-09-09T09:47:55.000Z,100835
2018-09-09T09:49:55.000Z,100836
2018-09-09T09:50:55.000Z,100841
2018-09-09T09:52:55.000Z,100835
2018-09-09T09:54:55.000Z,100832
2018-09-09T09:56:55.000Z,100836
2018-09-09T09:57:55.000Z,100829
2018-09-09T09:59:55.000Z,100827
2018-09-09T10:00:55.000Z,100831
2018-09-09T10:02:40.000Z,100837
2018-09-09T10:03:55.000Z,100838
2018-09-09T10:05:55.000Z,100836
2018-09-09T10:06:55.000Z,100839
2018-09-09T10:08:55.000Z,100838
2018-09-09T10:10:55.000Z,100835
2018-09-09T10:12:55.000Z,100842
2018-09-09T10:13:55.000Z,100836
2018-09-09T10:15:55.000Z,100834
2018-09-09T10:17:55.000Z,100847
2018-09-09T10:19:55.000Z,100845
2018-09-09T10:21:55.000Z,100848
2018-09-09T10:23:55.000Z,100846
2018-09-09T10:25:55.000Z,100846
2018-09-09T10:26:55.000Z,100840
2018-09-09T10:27:55.000Z,100842
2018-09-09T10:29:55.000Z,100844
2018-09-09T10:30:55.000Z,100845
2018-09-09T10:32:55.000Z,100848
2018-09-09T10:34:55.000Z,100851
2018-09-09T10:35:55.000Z,100857
2018-09-09T10:37:55.000Z,100845
2018-09-09T10:38:55.000Z,100849
2018-09-09T10:40:55.000Z,100844
2018-09-09T10:42:55.000Z,100846
2018-09-09T10:44:55.000Z,100848
2018-09-09T10:46:55.000Z,100845
2018-09-09T10:48:55.000Z,100848
2018-09-09T10:50:55.000Z,100852
2018-09-09T10:52:55.000Z,100851
2018-09-09T10:54:55.000Z,100862
2018-09-09T10:56:55.000Z,100852
2018-09-09T10:58:55.000Z,100848
2018-09-09T11:00:25.000Z,100848
2018-09-09T11:01:55.000Z,100855
2018-09-09T11:02:55.000Z,100852
2018-09-09T11:03:55.000Z,100858
2018-09-09T11:05:55.000Z,100861
2018-09-09T11:07:25.000Z,100852
2018-09-09T11:08:55.000Z,100854
2018-09-09T11:10:55.000Z,100860
2018-09-09T11:12:55.000Z,100861
2018-09-09T11:14:55.000Z,100856
2018-09-09T11:16:55.000Z,100867
2018-09-09T11:18:40.000Z,100851
2018-09-09T11:19:55.000Z,100860
2018-09-09T11:20:55.000Z,100862
2018-09-09T11:22:55.000Z,100869
2018-09-09T11:24:55.000Z,100866
2018-09-09T11:26:40.000Z,100859
2018-09-09T11:27:55.000Z,100857
2018-09-09T11:29:55.000Z,100855
2018-09-09T11:31:40.000Z,100853
2018-09-09T11:32:55.000Z,100850
2018-09-09T11:34:55.000Z,100843
2018-09-09T11:35:55.000Z,100844
2018-09-09T11:37:55.000Z,100840
2018-09-09T11:39:55.000Z,100847
2018-09-09T11:41:25.000Z,100846
2018-09-09T11:42:55.000Z,100848
2018-09-09T11:43:55.000Z,100848
2018-09-09T11:45:55.000Z,100846
2018-09-09T11:47:55.000Z,100845
2018-09-09T11:49:55.000Z,100840
2018-09-09T11:51:40.000Z,100836
2018-09-09T11:52:55.000Z,100833
2018-09-09T11:53:55.000Z,100832
2018-09-09T11:55:55.000Z,100830
2018-09-09T11:56:55.000Z,100822
2018-09-09T11:58:55.000Z,100821
2018-09-09T12:00:55.000Z,100813
2018-09-09T12:02:40.000Z,100816
2018-09-09T12:03:56.000Z,100812
2018-09-09T12:05:56.000Z,100817
2018-09-09T12:06:56.000Z,100812
2018-09-09T12:08:56.000Z,100809
2018-09-09T12:10:56.000Z,100816
2018-09-09T12:12:56.000Z,100815
2018-09-09T12:14:56.000Z,100812
2018-09-09T12:15:56.000Z,100813
2018-09-09T12:17:56.000Z,100812
2018-09-09T12:18:56.000Z,100811
2018-09-09T12:20:56.000Z,100807
2018-09-09T12:22:56.000Z,100804
2018-09-09T12:24:56.000Z,100798
2018-09-09T12:26:56.000Z,100796
2018-09-09T12:27:56.000Z,100792
2018-09-09T12:29:40.000Z,100793
2018-09-09T12:30:56.000Z,100798
2018-09-09T12:31:56.000Z,100795
2018-09-09T12:32:56.000Z,100801
2018-09-09T12:34:56.000Z,100796
2018-09-09T12:36:56.000Z,100795
2018-09-09T12:37:56.000Z,100795
2018-09-09T12:39:56.000Z,100795
2018-09-09T12:41:40.000Z,100801
2018-09-09T12:42:56.000Z,100810
2018-09-09T12:43:56.000Z,100806
2018-09-09T12:45:56.000Z,100807
2018-09-09T12:47:56.000Z,100813
2018-09-09T12:48:56.000Z,100810
2018-09-09T12:50:56.000Z,100813
2018-09-09T12:52:56.000Z,100808
2018-09-09T12:54:56.000Z,100807
2018-09-09T12:56:40.000Z,100797
2018-09-09T12:57:40.000Z,100801
2018-09-09T12:58:56.000Z,100802
2018-09-09T13:00:40.000Z,100802
2018-09-09T13:01:56.000Z,100818
2018-09-09T13:03:56.000Z,100812
2018-09-09T13:04:56.000Z,100806
2018-09-09T13:06:55.000Z,100801
2018-09-09T13:08:55.000Z,100803
2018-09-09T13:09:55.000Z,100799
2018-09-09T13:11:55.000Z,100799
2018-09-09T13:13:55.000Z,100789
2018-09-09T13:15:55.000Z,100797
2018-09-09T13:16:55.000Z,100800
2018-09-09T13:18:55.000Z,100787
2018-09-09T13:20:55.000Z,100795
2018-09-09T13:22:55.000Z,100804
2018-09-09T13:24:55.000Z,100805
2018-09-09T13:26:40.000Z,100811
2018-09-09T13:27:55.000Z,100807
2018-09-09T13:29:55.000Z,100800
2018-09-09T13:31:55.000Z,100806
2018-09-09T13:32:55.000Z,100798
2018-09-09T13:33:55.000Z,100799
2018-09-09T13:35:55.000Z,100795
2018-09-09T13:37:40.000Z,100781
2018-09-09T13:38:55.000Z,100783
2018-09-09T13:40:40.000Z,100787
2018-09-09T13:41:55.000Z,100792
2018-09-09T13:43:55.000Z,100797
2018-09-09T13:45:25.000Z,100790
2018-09-09T13:46:55.000Z,100795
2018-09-09T13:48:55.000Z,100792
2018-09-09T13:50:55.000Z,100794
2018-09-09T13:51:55.000Z,100797
2018-09-09T13:53:55.000Z,100799
2018-09-09T13:54:55.000Z,100798
2018-09-09T13:56:55.000Z,100801
2018-09-09T13:58:55.000Z,100799
2018-09-09T14:00:55.000Z,100803
2018-09-09T14:02:40.000Z,100796
2018-09-09T14:03:55.000Z,100799
2018-09-09T14:05:40.000Z,100796
2018-09-09T14:06:55.000Z,100798
2018-09-09T14:08:55.000Z,100805
2018-09-09T14:10:55.000Z,100803
2018-09-09T14:12:55.000Z,100804
2018-09-09T14:13:55.000Z,100803
2018-09-09T14:15:55.000Z,100807
2018-09-09T14:17:55.000Z,100799
2018-09-09T14:19:55.000Z,100795
2018-09-09T14:21:55.000Z,100790
2018-09-09T14:23:55.000Z,100799
2018-09-09T14:25:40.000Z,100793
2018-09-09T14:26:40.000Z,100790
2018-09-09T14:27:55.000Z,100793
2018-09-09T14:28:55.000Z,100789
2018-09-09T14:30:55.000Z,100794
2018-09-09T14:32:55.000Z,100788
2018-09-09T14:34:55.000Z,100787
2018-09-09T14:36:55.000Z,100792
2018-09-09T14:38:55.000Z,100789
2018-09-09T14:39:55.000Z,100789
2018-09-09T14:40:55.000Z,100788
2018-09-09T14:42:40.000Z,100784
2018-09-09T14:43:55.000Z,100792
2018-09-09T14:44:55.000Z,100788
2018-09-09T14:46:55.000Z,100789
2018-09-09T14:47:55.000Z,100794
2018-09-09T14:49:55.000Z,100784
2018-09-09T14:51:55.000Z,100788
2018-09-09T14:53:55.000Z,100793
2018-09-09T14:55:55.000Z,100800
2018-09-09T14:57:40.000Z,100802
2018-09-09T14:58:55.000Z,100803
2018-09-09T15:00:40.000Z,100805
2018-09-09T15:02:55.000Z,100804
2018-09-09T15:04:40.000Z,100811
2018-09-09T15:05:40.000Z,100803
2018-09-09T15:06:55.000Z,100809
2018-09-09T15:07:55.000Z,100809
2018-09-09T15:09:55.000Z,100809
2018-09-09T15:11:55.000Z,100803
2018-09-09T15:13:55.000Z,100799
2018-09-09T15:15:55.000Z,100803
2018-09-09T15:17:55.000Z,100806
2018-09-09T15:19:55.000Z,100799
2018-09-09T15:21:55.000Z,100793
2018-09-09T15:23:40.000Z,100796
2018-09-09T15:24:55.000Z,100789
2018-09-09T15:25:55.000Z,100789
2018-09-09T15:27:55.000Z,100791
2018-09-09T15:29:40.000Z,100788
2018-09-09T15:30:55.000Z,100788
2018-09-09T15:32:55.000Z,100783
2018-09-09T15:34:40.000Z,100785
2018-09-09T15:35:40.000Z,100785
2018-09-09T15:36:55.000Z,100782
2018-09-09T15:37:55.000Z,100787
2018-09-09T15:39:55.000Z,100781
2018-09-09T15:41:55.000Z,100791
2018-09-09T15:43:55.000Z,100784
2018-09-09T15:45:55.000Z,100783
2018-09-09T15:46:55.000Z,100790
2018-09-09T15:48:55.000Z,100789
2018-09-09T15:50:55.000Z,100788
2018-09-09T15:52:55.000Z,100795
2018-09-09T15:54:55.000Z,100783
2018-09-09T15:56:40.000Z,100789
2018-09-09T15:57:55.000Z,100784
2018-09-09T15:59:55.000Z,100777
2018-09-09T16:00:55.000Z,100781
2018-09-09T16:02:55.000Z,100781
2018-09-09T16:04:55.000Z,100781
2018-09-09T16:06:55.000Z,100781
2018-09-09T16:07:55.000Z,100781
2018-09-09T16:09:55.000Z,100777
2018-09-09T16:11:55.000Z,100777
2018-09-09T16:13:40.000Z,100779
2018-09-09T16:14:55.000Z,100776
2018-09-09T16:15:55.000Z,100777
2018-09-09T16:16:55.000Z,100777
2018-09-09T16:18:56.000Z,100774
2018-09-09T16:20:56.000Z,100774
2018-09-09T16:22:56.000Z,100771
2018-09-09T16:24:56.000Z,100774
2018-09-09T16:26:56.000Z,100767
2018-09-09T16:27:56.000Z,100770
2018-09-09T16:29:56.000Z,100774
2018-09-09T16:30:56.000Z,100770
2018-09-09T16:31:56.000Z,100770
2018-09-09T16:33:56.000Z,100762
2018-09-09T16:34:56.000Z,100761
2018-09-09T16:36:56.000Z,100767
2018-09-09T16:38:56.000Z,100768
2018-09-09T16:40:40.000Z,100772
2018-09-09T16:41:56.000Z,100772
2018-09-09T16:43:56.000Z,100772
2018-09-09T16:45:56.000Z,100773
2018-09-09T16:46:56.000Z,100771
2018-09-09T16:48:56.000Z,100766
2018-09-09T16:50:56.000Z,100771
2018-09-09T16:51:56.000Z,100762
2018-09-09T16:53:40.000Z,100763
2018-09-09T16:54:56.000Z,100760
2018-09-09T16:55:56.000Z,100756
2018-09-09T16:57:40.000Z,100759
2018-09-09T16:58:56.000Z,100760
2018-09-09T17:00:56.000Z,100763
2018-09-09T17:02:56.000Z,100762
2018-09-09T17:03:56.000Z,100760
2018-09-09T17:05:40.000Z,100759
2018-09-09T17:06:56.000Z,100761
2018-09-09T17:07:56.000Z,100760
2018-09-09T17:09:56.000Z,100758
2018-09-09T17:11:56.000Z,100756
2018-09-09T17:13:56.000Z,100759
2018-09-09T17:14:56.000Z,100754
2018-09-09T17:16:56.000Z,100759
2018-09-09T17:17:56.000Z,100760
2018-09-09T17:19:56.000Z,100759
2018-09-09T17:21:55.000Z,100759
2018-09-09T17:23:55.000Z,100766
2018-09-09T17:25:55.000Z,100761
2018-09-09T17:27:55.000Z,100764
2018-09-09T17:29:55.000Z,100769
2018-09-09T17:30:55.000Z,100769
2018-09-09T17:32:55.000Z,100765
2018-09-09T17:33:55.000Z,100766
2018-09-09T17:35:40.000Z,100765
2018-09-09T17:36:55.000Z,100767
2018-09-09T17:37:55.000Z,100769
2018-09-09T17:39:55.000Z,100765
2018-09-09T17:41:55.000Z,100765
2018-09-09T17:42:55.000Z,100767
2018-09-09T17:44:40.000Z,100769
2018-09-09T17:45:55.000Z,100776
2018-09-09T17:47:40.000Z,100774
2018-09-09T17:48:55.000Z,100769
2018-09-09T17:50:55.000Z,100772
2018-09-09T17:51:55.000Z,100774
2018-09-09T17:52:55.000Z,100770
2018-09-09T17:54:55.000Z,100773
2018-09-09T17:55:55.000Z,100778
2018-09-09T17:56:55.000Z,100774
2018-09-09T17:58:55.000Z,100776
2018-09-09T18:00:55.000Z,100777
2018-09-09T18:02:55.000Z,100771
2018-09-09T18:04:55.000Z,100771
2018-09-09T18:05:55.000Z,100768
2018-09-09T18:07:55.000Z,100771
2018-09-09T18:08:55.000Z,100767
2018-09-09T18:10:55.000Z,100766
2018-09-09T18:11:55.000Z,100774
2018-09-09T18:13:40.000Z,100772
2018-09-09T18:14:55.000Z,100771
2018-09-09T18:16:55.000Z,100768
2018-09-09T18:17:55.000Z,100773
2018-09-09T18:19:55.000Z,100773
2018-09-09T18:20:55.000Z,100773
2018-09-09T18:22:55.000Z,100778
2018-09-09T18:24:40.000Z,100772
2018-09-09T18:25:55.000Z,100777
2018-09-09T18:27:55.000Z,100775
2018-09-09T18:28:55.000Z,100775
2018-09-09T18:30:55.000Z,100775
2018-09-09T18:32:55.000Z,100771
2018-09-09T18:33:55.000Z,100777
2018-09-09T18:35:40.000Z,100778
2018-09-09T18:36:55.000Z,100783
2018-09-09T18:38:55.000Z,100781
2018-09-09T18:40:55.000Z,100777
2018-09-09T18:42:55.000Z,100781
2018-09-09T18:43:55.000Z,100779
2018-09-09T18:45:55.000Z,100778
2018-09-09T18:47:55.000Z,100769
2018-09-09T18:49:40.000Z,100773
2018-09-09T18:50:55.000Z,100774
2018-09-09T18:52:40.000Z,100772
2018-09-09T18:53:55.000Z,100775
2018-09-09T18:55:55.000Z,100777
2018-09-09T18:57:55.000Z,100775
2018-09-09T18:59:40.000Z,100775
2018-09-09T19:00:55.000Z,100772
2018-09-09T19:02:55.000Z,100779
2018-09-09T19:04:55.000Z,100776
2018-09-09T19:06:55.000Z,100780
2018-09-09T19:07:55.000Z,100778
2018-09-09T19:09:55.000Z,100780
2018-09-09T19:10:55.000Z,100784
2018-09-09T19:12:55.000Z,100776
2018-09-09T19:14:40.000Z,100780
2018-09-09T19:15:55.000Z,100782
2018-09-09T19:16:55.000Z,100779
2018-09-09T19:17:55.000Z,100786
2018-09-09T19:18:55.000Z,100778
2018-09-09T19:20:55.000Z,100779
2018-09-09T19:21:55.000Z,100779
2018-09-09T19:23:55.000Z,100775
2018-09-09T19:24:55.000Z,100771
2018-09-09T19:26:55.000Z,100769
2018-09-09T19:28:55.000Z,100772
2018-09-09T19:29:55.000Z,100772
2018-09-09T19:31:55.000Z,100777
2018-09-09T19:33:55.000Z,100785
2018-09-09T19:35:55.000Z,100781
2018-09-09T19:37:55.000Z,100780
2018-09-09T19:39:55.000Z,100780
2018-09-09T19:41:55.000Z,100781
2018-09-09T19:43:55.000Z,100782
2018-09-09T19:45:55.000Z,100785
2018-09-09T19:47:55.000Z,100787
2018-09-09T19:49:55.000Z,100787
2018-09-09T19:51:55.000Z,100792
2018-09-09T19:52:55.000Z,100790
2018-09-09T19:54:55.000Z,100793
2018-09-09T19:56:40.000Z,100787
2018-09-09T19:57:55.000Z,100789
2018-09-09T19:58:55.000Z,100786
2018-09-09T20:00:55.000Z,100784
2018-09-09T20:02:55.000Z,100781
2018-09-09T20:03:55.000Z,100786
2018-09-09T20:05:55.000Z,100788
2018-09-09T20:07:40.000Z,100785
2018-09-09T20:08:55.000Z,100783
2018-09-09T20:09:55.000Z,100787
2018-09-09T20:11:55.000Z,100782
2018-09-09T20:13:25.000Z,100780